CSUN New Campus Station -PST Time - Most Recent Data on bottom of page




           Date/Time      Avg      Avg      Max     Wind      Avg      Max      Min      Avg      Avg    Total      Avg     Batt
                         Wind     Wind     Wind      Dir     Temp     Temp     Temp       RH      Bar     Rain    Solar     Volt
                      Spd MPH      Dir  Spd MPH   at Max    Deg_F    Deg_F    Deg_F        % Press_mb   Inches     W/m2      Min
--------------------------------------------------------------------------------------------------------------------------------
    08/26/2014 00:00      1.0       80      2.4       86     66.2     66.6     65.5       58     1013     0.00        0     13.3
    08/26/2014 00:15      0.3      153      1.2      153     65.6     66.6     64.9       62     1013     0.00        0     13.3
    08/26/2014 00:30      0.3       68      1.7       65     65.0     65.5     64.8       61     1013     0.00        0     13.4
    08/26/2014 00:45      0.6       67      2.1       51     65.5     65.8     65.2       60     1013     0.00        0     13.4
    08/26/2014 01:00      0.7       65      2.1       47     65.2     65.7     64.8       63     1013     0.00        0     13.4
    08/26/2014 01:15      0.7       64      3.4       75     65.2     65.4     64.9       67     1013     0.00        0     13.4
    08/26/2014 01:30      0.8       48      2.9       67     65.1     65.3     64.9       68     1013     0.00        0     13.4
    08/26/2014 01:45      0.9       71      2.8       37     65.1     65.3     64.9       69     1013     0.00        0     13.4
    08/26/2014 02:00      0.4       68      1.8       55     64.4     65.2     64.0       71     1013     0.00        0     13.4
    08/26/2014 02:15      0.1       85      1.4       86     64.2     64.5     63.7       71     1013     0.00        0     13.4
    08/26/2014 02:30      0.4       69      1.8      104     63.7     63.9     63.4       71     1013     0.00        0     13.4
    08/26/2014 02:45      0.0       86      1.5       63     63.5     63.8     63.1       73     1013     0.00        0     13.4
    08/26/2014 03:00      0.0       80      0.5       66     63.0     63.4     62.6       75     1013     0.00        0     13.4
    08/26/2014 03:15      0.7      148      2.5      159     62.4     62.9     62.1       76     1013     0.00        0     13.4
    08/26/2014 03:30      0.0        0      0.0      156     62.2     62.4     62.0       76     1013     0.00        0     13.4
    08/26/2014 03:45      0.0      330      0.8      330     62.1     62.4     61.8       73     1013     0.00        0     13.4
    08/26/2014 04:00      0.1      307      1.0      304     61.9     62.2     61.6       73     1013     0.00        0     13.4
    08/26/2014 04:15      0.2      317      1.1      316     62.0     62.3     61.7       72     1013     0.00        0     13.4
    08/26/2014 04:30      0.1      318      1.3      327     61.5     61.9     61.2       74     1013     0.00        0     13.4
    08/26/2014 04:45      0.1      316      1.0      313     61.5     61.7     61.3       73     1013     0.00        0     13.4
    08/26/2014 05:00      0.1      320      0.9      327     61.2     61.5     61.0       73     1013     0.00        0     13.4
    08/26/2014 05:15      0.3      307      1.2      308     61.4     61.7     61.2       73     1013     0.00        0     13.4
    08/26/2014 05:30      0.4      317      1.1      328     61.2     61.4     60.8       73     1013     0.00        3     13.4
    08/26/2014 05:45      0.1      309      0.8      307     61.2     61.5     60.9       73     1013     0.00        8     13.4
    08/26/2014 06:00      0.0      333      0.4      332     61.3     61.6     61.0       74     1014     0.00       16     13.4
    08/26/2014 06:15      0.0        0      0.0       75     61.6     61.9     61.3       74     1014     0.00       24     13.4
    08/26/2014 06:30      1.1      176      1.8      192     63.0     64.7     61.6       69     1014     0.00      134     13.4
    08/26/2014 06:45      0.9      192      2.1      194     65.1     65.9     64.5       65     1014     0.00      177     13.4
    08/26/2014 07:00      0.2      187      1.2      209     66.9     68.1     65.8       61     1014     0.00      229     13.3
    08/26/2014 07:15      0.2      249      1.8      221     68.5     69.7     68.1       56     1014     0.00      278     13.3
    08/26/2014 07:30      0.4      229      1.6      212     70.2     70.7     69.6       54     1014     0.00      329     13.3
    08/26/2014 07:45      1.0      204      2.5      178     70.8     71.4     70.2       53     1014     0.00      379     13.2
    08/26/2014 08:00      0.7      177      2.0      167     72.4     73.3     71.2       48     1014     0.00      429     13.2
    08/26/2014 08:15      1.7      181      4.1      184     73.8     74.8     73.2       48     1014     0.00      478     13.2
    08/26/2014 08:30      2.5      134      6.5      151     74.7     75.0     74.4       48     1014     0.00      526     13.2
    08/26/2014 08:45      2.1      143      5.0       71     75.2     76.6     74.1       45     1014     0.00      571     13.1
    08/26/2014 09:00      2.2      176      8.4      149     76.2     76.9     75.7       46     1014     0.00      616     13.1
    08/26/2014 09:15      3.3      152      7.5      127     77.3     77.8     76.7       43     1014     0.00      657     13.1
    08/26/2014 09:30      2.6      133      6.4      149     78.7     79.8     77.7       41     1014     0.00      698     13.1
    08/26/2014 09:45      3.3      131      6.6      150     79.3     80.4     78.6       40     1014     0.00      734     13.1
    08/26/2014 10:00      3.7      154      7.8      163     79.3     80.1     78.7       40     1014     0.00      764     13.1
    08/26/2014 10:15      2.6       89      8.4       94     80.8     81.2     80.0       39     1014     0.00      794     13.1
    08/26/2014 10:30      4.0      149      8.7      151     82.1     82.8     81.1       39     1014     0.00      818     13.1
    08/26/2014 10:45      3.2      127      8.4      138     82.0     82.7     81.2       39     1014     0.00      838     13.1
    08/26/2014 11:00      5.6      142     12.2      165     82.9     84.1     82.3       37     1014     0.00      860     13.1
    08/26/2014 11:15      5.4      147     10.4      139     83.6     84.4     82.8       35     1014     0.00      827     13.1
    08/26/2014 11:30      3.7      137      8.8       83     84.4     85.2     83.6       34     1014     0.00      855     13.1
    08/26/2014 11:45      4.9      154     11.2      180     85.6     86.5     84.8       33     1014     0.00      873     13.0
    08/26/2014 12:00      6.0      157     11.4      152     85.6     86.6     84.9       33     1014     0.00      899     13.0
    08/26/2014 12:15      6.0      156     11.3      144     86.0     86.9     84.9       33     1014     0.00      902     13.0
    08/26/2014 12:30      6.2      152     11.9      161     86.0     87.2     84.7       29     1013     0.00      899     13.0
    08/26/2014 12:45      6.0      153     11.1      170     86.2     86.8     85.3       32     1013     0.00      889     13.0
    08/26/2014 13:00      7.5      156     14.3      141     86.0     86.9     85.0       29     1013     0.00      880     13.0
    08/26/2014 13:15      5.7      135     11.1      145     86.7     87.6     85.8       27     1013     0.00      866     13.0
    08/26/2014 13:30      5.0      128     12.0      125     87.2     87.6     86.7       24     1013     0.00      844     13.0
    08/26/2014 13:45      4.6      120     10.1       67     87.5     88.0     86.8       24     1013     0.00      821     13.0
    08/26/2014 14:00      5.7      134     12.0      172     87.4     87.8     86.9       17     1013     0.00      797     13.0
    08/26/2014 14:15      3.9      124     10.6       88     88.5     89.1     87.3       18     1012     0.00      767     13.0
    08/26/2014 14:30      4.6      113     10.2       82     88.9     89.4     88.1       16     1012     0.00      732     13.0
    08/26/2014 14:45      5.4      130     12.7      161     88.9     89.6     88.2       15     1012     0.00      695     13.0
    08/26/2014 15:00      5.3      127     11.5      140     89.0     89.6     88.5       14     1012     0.00      653     13.0
    08/26/2014 15:15      4.4      121     11.4      150     88.8     89.4     88.3       14     1012     0.00      613     13.0
    08/26/2014 15:30      4.6      108     10.0      127     88.4     89.1     87.7       15     1012     0.00      547     13.0
    08/26/2014 15:45      5.3      128     12.3      121     87.9     88.5     87.6       13     1012     0.00      518     13.0
    08/26/2014 16:00      4.1      111      8.9      118     88.1     88.4     87.6       15     1012     0.00      470     13.0
    08/26/2014 16:15      4.6      111      9.5       86     88.0     88.4     87.5       17     1012     0.00      418     13.0
    08/26/2014 16:30      4.7      127     13.6      143     87.8     88.2     87.5       15     1012     0.00      368     13.0
    08/26/2014 16:45      4.5      107      9.8       87     87.6     87.9     87.3       16     1012     0.00      314     13.0
    08/26/2014 17:00      3.3      106      7.8       84     87.5     87.7     87.3       16     1012     0.00      257     13.0
    08/26/2014 17:15      2.0      174      5.2      146     86.7     87.7     85.6       17     1012     0.00      206     13.0
    08/26/2014 17:30      2.9      195      8.0      144     85.4     85.8     85.0       31     1012     0.00      159     13.0
    08/26/2014 17:45      2.1      247      5.3      245     84.2     85.1     83.5       33     1012     0.00      115     13.0
    08/26/2014 18:00      2.6      262      6.7      252     83.3     83.7     82.9       33     1012     0.00       70     13.1
    08/26/2014 18:15      2.2      270      5.4      253     82.4     82.9     81.6       34     1012     0.00       30     13.1
    08/26/2014 18:30      1.1      297      3.5      279     81.0     81.8     80.3       34     1012     0.00        7     13.1
    08/26/2014 18:45      0.6      288      3.1      298     79.8     80.4     79.3       35     1013     0.00        2     13.1
    08/26/2014 19:00      1.0      285      3.0      285     79.1     79.5     78.7       34     1013     0.00        0     13.2
    08/26/2014 19:15      0.7      266      3.2      253     78.4     78.9     78.0       36     1013     0.00        0     13.2
    08/26/2014 19:30      0.7      265      2.9      245     77.7     78.2     77.2       37     1013     0.00        0     13.2
    08/26/2014 19:45      1.9      254      3.9      259     76.5     77.5     75.8       42     1013     0.00        0     13.2
    08/26/2014 20:00      0.4      260      3.3      254     75.4     76.0     74.9       41     1014     0.00        0     13.2
    08/26/2014 20:15      0.1      259      1.9      252     74.6     75.0     74.1       42     1014     0.00        0     13.2
    08/26/2014 20:30      0.1      257      1.2      270     74.2     74.5     73.9       42     1014     0.00        0     13.2
    08/26/2014 20:45      0.0        0      0.0      257     73.6     74.1     73.3       43     1014     0.00        0     13.2
    08/26/2014 21:00      0.0        0      0.0      264     73.2     73.5     72.7       43     1014     0.00        0     13.3
    08/26/2014 21:15      0.0        0      0.0      176     72.6     72.9     72.4       44     1014     0.00        0     13.3
    08/26/2014 21:30      0.0        0      0.0      174     72.5     72.7     72.2       45     1014     0.00        0     13.3
    08/26/2014 21:45      0.0        0      0.0      349     72.0     72.4     71.5       46     1014     0.00        0     13.3
    08/26/2014 22:00      0.0        0      0.0      119     71.7     72.0     71.5       44     1014     0.00        0     13.3
    08/26/2014 22:15      0.0        0      0.0      185     71.5     71.8     71.3       46     1014     0.00        0     13.3
    08/26/2014 22:30      0.0        0      0.0      285     71.3     71.6     71.0       47     1014     0.00        0     13.3
    08/26/2014 22:45      0.0        0      0.0      284     71.0     71.3     70.6       48     1014     0.00        0     13.3
    08/26/2014 23:00      0.0        0      0.0      332     70.6     71.0     70.2       49     1014     0.00        0     13.3
    08/26/2014 23:15      0.0       51      0.6       55     70.3     70.7     69.9       50     1014     0.00        0     13.3
    08/26/2014 23:30      0.1      146      1.1      136     69.6     70.2     69.1       52     1014     0.00        0     13.3
    08/26/2014 23:45      0.0      170      0.2      175     69.0     69.4     68.8       53     1014     0.00        0     13.3
    08/27/2014 00:00      0.0        0      0.0      167     68.8     69.0     68.5       54     1014     0.00        0     13.3
    08/27/2014 00:15      0.0      331      0.7      334     68.8     69.0     68.6       53     1014     0.00        0     13.3
    08/27/2014 00:30      0.0        0      0.0      322     68.4     68.9     68.0       52     1015     0.00        0     13.3
    08/27/2014 00:45      0.0        0      0.0      310     68.0     68.4     67.7       52     1015     0.00        0     13.3
    08/27/2014 01:00      0.0        0      0.0      330     67.8     68.2     67.3       54     1015     0.00        0     13.3
    08/27/2014 01:15      0.1       21      2.1       32     67.8     68.1     67.5       54     1015     0.00        0     13.3
    08/27/2014 01:30      1.6       40      3.4       27     68.4     68.9     67.7       47     1015     0.00        0     13.3
    08/27/2014 01:45      1.0       15      3.0       17     68.8     69.0     68.5       48     1015     0.00        0     13.3
    08/27/2014 02:00      1.1        7      2.4        0     69.0     69.2     68.6       47     1015     0.00        0     13.3
    08/27/2014 02:15      0.1      165      1.0      167     68.2     69.2     67.1       51     1015     0.00        0     13.3
    08/27/2014 02:30      0.0        0      0.0      144     66.8     67.3     66.4       52     1015     0.00        0     13.3
    08/27/2014 02:45      0.0        0      0.0      256     66.5     66.8     66.2       53     1015     0.00        0     13.3
    08/27/2014 03:00      0.0        0      0.0      273     66.1     66.5     65.5       54     1015     0.00        0     13.3
    08/27/2014 03:15      0.3      318      1.8      320     65.8     66.1     65.5       52     1015     0.00        0     13.4
    08/27/2014 03:30      0.0        0      0.0      317     65.6     65.9     65.2       52     1015     0.00        0     13.4
    08/27/2014 03:45      0.0      340      1.2      340     65.3     65.6     65.1       52     1015     0.00        0     13.4
    08/27/2014 04:00      0.4      336      2.1      339     65.7     66.0     65.3       50     1015     0.00        0     13.4
    08/27/2014 04:15      0.1       47      1.7       35     65.3     65.9     64.8       52     1015     0.00        0     13.4
    08/27/2014 04:30      0.6        2      2.3      354     66.0     66.6     65.3       51     1015     0.00        0     13.4
    08/27/2014 04:45      0.0        0      0.0      342     64.9     65.8     64.3       55     1015     0.00        0     13.4
    08/27/2014 05:00      0.0        0      0.0      259     64.2     64.5     63.9       56     1016     0.00        0     13.4
    08/27/2014 05:15      0.1      174      1.3      172     63.9     64.2     63.7       58     1016     0.00        0     13.4
    08/27/2014 05:30      0.1      327      1.7      304     64.1     64.4     63.9       56     1016     0.00        3     13.4
    08/27/2014 05:45      0.6      330      1.8      338     64.7     65.1     64.1       56     1016     0.00        8     13.4
    08/27/2014 06:00      0.0        0      0.0      328     64.9     65.1     64.7       57     1016     0.00       15     13.0
    08/27/2014 06:15      0.1      326      1.0      327     65.5     66.0     64.8       55     1016     0.00       21     13.4
    08/27/2014 06:30      0.0        0      0.0      296     66.7     68.4     65.7       52     1016     0.00      131     13.4
    08/27/2014 06:45      0.5      166      2.3      165     69.7     71.2     68.3       45     1016     0.00      178     13.3
    08/27/2014 07:00      1.0      184      2.1      164     72.1     72.6     70.9       39     1016     0.00      230     13.3
    08/27/2014 07:15      0.1      182      1.2      178     73.8     74.9     72.3       35     1016     0.00      281     13.3
    08/27/2014 07:30      1.3      189      2.9      190     75.3     75.8     74.8       37     1016     0.00      332     13.2
    08/27/2014 07:45      1.8      189      3.3      217     75.3     76.3     74.8       35     1016     0.00      383     13.2
    08/27/2014 08:00      0.8      193      3.3      205     76.8     78.3     75.8       32     1016     0.00      433     13.2
    08/27/2014 08:15      1.0      188      2.9      183     78.6     79.9     77.5       29     1016     0.00      483     13.1
    08/27/2014 08:30      1.3      180      3.6      191     79.7     80.7     78.9       28     1016     0.00      531     13.1
    08/27/2014 08:45      0.7      183      3.6      198     81.3     82.2     79.9       26     1016     0.00      577     13.1
    08/27/2014 09:00      2.0      174      5.1      137     82.5     83.2     81.8       27     1016     0.00      621     13.1
    08/27/2014 09:15      0.5      178      3.0      180     84.0     85.7     82.9       22     1016     0.00      664     13.1
    08/27/2014 09:30      1.4      183      4.2      201     85.2     86.3     84.3       22     1016     0.00      704     13.1
    08/27/2014 09:45      1.5      230      4.2      210     85.9     86.8     85.0       18     1016     0.00      740     13.1
    08/27/2014 10:00      1.0      184      4.5      164     87.5     88.7     86.5       17     1016     0.00      774     13.0
    08/27/2014 10:15      2.4      167      5.3      140     88.3     89.1     87.8       17     1016     0.00      688     13.0
    08/27/2014 10:30      2.2      182      6.3      146     89.3     90.2     88.7       16     1016     0.00      799     13.0
    08/27/2014 10:45      2.4      177      5.9      155     90.0     90.8     89.4       16     1016     0.00      839     13.0
    08/27/2014 11:00      2.3      155      5.7      210     90.5     91.4     89.7       16     1016     0.00      868     13.0
    08/27/2014 11:15      3.8      180      7.2      189     90.1     91.0     89.6       17     1016     0.00      839     13.0
    08/27/2014 11:30      3.3      154      9.5      155     90.4     91.1     89.8       18     1016     0.00      865     13.0
    08/27/2014 11:45      2.7      167      7.6      117     91.4     92.7     90.4       16     1015     0.00      868     13.0
    08/27/2014 12:00      2.4      147      6.5      120     92.9     94.0     92.2       18     1015     0.00      906     13.0
    08/27/2014 12:15      3.7      163      9.5      143     93.1     94.4     92.4       16     1015     0.00      901     13.0
    08/27/2014 12:30      4.3      150     10.8      176     93.4     94.5     92.5       16     1015     0.00      847     13.0
    08/27/2014 12:45      5.6      148     11.8      160     93.9     94.4     93.4       16     1015     0.00      886     13.0
    08/27/2014 13:00      4.1      155      8.9      160     93.6     94.0     93.1       15     1015     0.00      874     13.0
    08/27/2014 13:15      4.2      155      9.8      155     94.7     95.3     93.6       15     1015     0.00      827     13.0
    08/27/2014 13:30      5.5      172     12.0      162     94.1     95.1     93.5       16     1015     0.00      843     13.0
    08/27/2014 13:45      4.4      159     10.2      142     95.1     95.7     94.0       15     1014     0.00      818     13.0
    08/27/2014 14:00      3.6      265      9.1      227     94.9     95.4     94.3       16     1014     0.00      787     13.0
    08/27/2014 14:15      4.5      271     12.2      250     94.9     95.8     94.1       16     1014     0.00      757     13.0
    08/27/2014 14:30      5.4      276     13.3      256     94.4     95.1     94.0       16     1014     0.00      722     13.0
    08/27/2014 14:45      5.1      273     13.6      216     94.5     95.0     94.1       16     1014     0.00      685     13.0
    08/27/2014 15:00      6.2      273     13.2      254     93.8     94.6     93.1       16     1014     0.00      646     13.0
    08/27/2014 15:15      5.5      278     15.2      264     93.3     94.0     92.9       16     1014     0.00      605     13.0
    08/27/2014 15:30      5.2      282     12.4      257     92.8     93.4     92.2       17     1014     0.00      541     13.0
    08/27/2014 15:45      5.7      277     10.5      235     92.4     92.8     91.9       16     1014     0.00      513     13.0
    08/27/2014 16:00      5.0      276     11.4      290     92.2     92.7     91.9       16     1014     0.00      466     13.0
    08/27/2014 16:15      5.3      276     12.2      246     92.0     92.6     91.1       17     1014     0.00      417     13.0
    08/27/2014 16:30      5.4      278     12.3      248     91.2     91.7     90.9       17     1014     0.00      366     13.0
    08/27/2014 16:45      4.8      281     10.4      249     90.8     91.4     90.3       18     1014     0.00      314     12.8
    08/27/2014 17:00      6.2      267     12.9      231     89.9     90.7     89.3       21     1014     0.00      262     12.5
    08/27/2014 17:15      5.9      276     13.0      258     88.9     89.5     88.3       21     1014     0.00      212     12.4
    08/27/2014 17:30      5.7      282     10.6      284     87.8     88.4     87.1       21     1014     0.00      162     12.5
    08/27/2014 17:45      4.9      279      9.9      281     87.0     87.4     86.6       19     1014     0.00      117     12.5
    08/27/2014 18:00      4.9      275     11.7      289     86.2     86.7     85.9       20     1014     0.00       69     12.5
    08/27/2014 18:15      3.7      276      6.8      267     85.4     86.0     84.8       21     1014     0.00       27     12.5
    08/27/2014 18:30      3.8      263      8.2      261     84.1     85.0     82.7       26     1014     0.00        6     13.0
    08/27/2014 18:45      3.0      254      7.5      248     82.9     83.1     82.6       25     1014     0.00        2     13.1
    08/27/2014 19:00      1.2      225      4.3      216     82.1     83.0     81.4       26     1015     0.00        0     13.1
    08/27/2014 19:15      2.8      242      6.4      247     81.7     82.1     81.3       23     1015     0.00        0     13.1
    08/27/2014 19:30      3.0      247      6.9      262     81.7     82.0     81.3       24     1015     0.00        0     13.1
    08/27/2014 19:45      3.9      264     10.2      263     81.2     81.4     80.9       21     1015     0.00        0     13.1
    08/27/2014 20:00      3.7      283      8.0      299     80.8     81.3     80.2       23     1015     0.00        0     13.2
    08/27/2014 20:15      3.2      271      7.5      243     80.3     80.6     79.9       24     1015     0.00        0     13.2
    08/27/2014 20:30      4.5      266      7.8      256     80.0     80.3     79.8       22     1015     0.00        0     13.2
    08/27/2014 20:45      2.7      272      6.1      244     79.7     80.2     79.3       24     1015     0.00        0     13.2
    08/27/2014 21:00      3.8      255      6.8      258     79.5     79.7     79.1       24     1015     0.00        0     13.2
    08/27/2014 21:15      2.0      253      5.8      254     78.9     79.3     78.2       26     1015     0.00        0     13.2
    08/27/2014 21:30      1.7      256      3.8      262     77.5     78.3     76.9       28     1015     0.00        0     13.2
    08/27/2014 21:45      2.0      255      4.8      247     76.7     77.4     76.2       28     1015     0.00        0     13.2
    08/27/2014 22:00      0.6      243      3.5      246     76.3     77.0     75.7       30     1015     0.00        0     13.2
    08/27/2014 22:15      1.3      262      4.5      241     75.8     76.1     75.5       30     1015     0.00        0     13.2
    08/27/2014 22:30      1.1      236      4.3      187     75.3     76.0     74.5       30     1016     0.00        0     13.2
    08/27/2014 22:45      0.7      264      5.3      252     74.7     75.1     74.4       31     1016     0.00        0     13.3
    08/27/2014 23:00      0.9      264      5.2      244     74.3     74.7     73.9       35     1016     0.00        0     13.3
    08/27/2014 23:15      0.3      284      2.3      301     73.4     74.0     72.7       36     1016     0.00        0     13.3
    08/27/2014 23:30      0.1      329      1.4      319     72.5     72.9     72.2       41     1016     0.00        0     13.3
    08/27/2014 23:45      0.2      333      1.5      334     72.5     72.7     72.2       40     1016     0.00        0     13.3
    08/28/2014 00:00      0.0        0      0.0      314     71.8     72.7     71.4       41     1015     0.00        0     13.3
    08/28/2014 00:15      0.1      120      1.1      100     70.7     71.6     70.2       43     1015     0.00        0     13.3
    08/28/2014 00:30      0.7      139      2.0      116     70.7     71.0     70.3       43     1015     0.00        0     13.3
    08/28/2014 00:45      0.0        0      0.0      136     69.9     70.4     69.3       43     1015     0.00        0     13.3
    08/28/2014 01:00      0.0        0      0.0      259     69.9     70.3     69.4       46     1015     0.00        0     13.3
    08/28/2014 01:15      0.0      297      0.9      296     69.8     70.3     69.6       46     1015     0.00        0     13.3
    08/28/2014 01:30      0.2      332      1.7      346     69.7     69.8     69.5       44     1015     0.00        0     13.3
    08/28/2014 01:45      0.1       35      2.0       41     69.3     69.8     69.0       43     1015     0.00        0     13.3
    08/28/2014 02:00      0.1       36      1.8       44     69.4     69.8     68.9       49     1015     0.00        0     13.3
    08/28/2014 02:15      0.1      359      1.2        4     68.8     69.2     68.5       47     1015     0.00        0     13.3
    08/28/2014 02:30      0.0       12      1.2       27     69.1     69.3     68.8       47     1015     0.00        0     13.3
    08/28/2014 02:45      0.2      346      1.3      353     69.3     69.7     68.7       46     1015     0.00        0     13.3
    08/28/2014 03:00      0.0      350      0.8      344     68.7     69.6     67.9       50     1015     0.00        0     13.3
    08/28/2014 03:15      0.0        0      0.0      251     67.8     68.1     67.6       49     1015     0.00        0     13.3
    08/28/2014 03:30      0.0      335      0.7      335     67.5     68.1     67.2       51     1015     0.00        0     13.3
    08/28/2014 03:45      0.0      269      0.6      270     66.9     67.7     66.4       53     1015     0.00        0     13.3
    08/28/2014 04:00      0.1      340      1.2      342     66.8     67.2     66.4       54     1015     0.00        0     13.3
    08/28/2014 04:15      0.0        0      0.0      330     66.3     66.7     66.0       55     1015     0.00        0     13.3
    08/28/2014 04:30      0.0        0      0.0      110     65.8     66.2     65.4       56     1015     0.00        0     13.4
    08/28/2014 04:45      0.0        0      0.0      243     65.7     66.1     65.4       56     1015     0.00        0     13.4
    08/28/2014 05:00      0.4      333      2.6      337     66.1     66.4     65.8       55     1015     0.00        0     13.4
    08/28/2014 05:15      0.3      334      2.3      331     66.5     66.8     66.0       55     1015     0.00        0     13.4
    08/28/2014 05:30      0.0        0      0.0      335     65.6     66.1     65.2       57     1015     0.00        3     13.3
    08/28/2014 05:45      0.1      345      1.1      344     65.5     66.1     65.2       55     1015     0.00        8     13.4
    08/28/2014 06:00      0.3      352      1.6      354     66.6     66.9     65.9       53     1015     0.00       15     13.4
    08/28/2014 06:15      0.0       35      0.8       34     66.9     67.2     66.7       54     1015     0.00       20     13.4
    08/28/2014 06:30      0.0        0      0.0      244     68.5     70.5     67.2       49     1015     0.00      126     13.3
    08/28/2014 06:45      0.0        0      0.0       73     72.2     74.5     70.5       41     1015     0.00      183     13.3
    08/28/2014 07:00      0.0      274      0.3      272     76.1     76.7     74.5       38     1015     0.00      233     13.3
    08/28/2014 07:15      0.0      202      0.7      204     77.5     78.0     76.4       31     1015     0.00      285     13.2
    08/28/2014 07:30      0.1      215      1.3      249     78.8     80.2     77.6       29     1015     0.00      338     13.2
    08/28/2014 07:45      0.1      220      1.4      252     80.8     81.8     80.1       27     1015     0.00      390     13.2
    08/28/2014 08:00      0.5      225      2.1      258     81.4     81.7     81.0       29     1015     0.00      441     13.1
    08/28/2014 08:15      0.7      176      2.4      190     82.5     83.3     81.5       27     1015     0.00      491     13.1
    08/28/2014 08:30      0.7      193      2.5      215     83.6     84.2     83.1       26     1015     0.00      539     13.1
    08/28/2014 08:45      0.7      230      2.4      212     84.7     85.5     84.2       24     1015     0.00      586     12.7
    08/28/2014 09:00      0.7      180      3.1      147     86.1     87.1     85.3       23     1015     0.00      630     12.5
    08/28/2014 09:15      1.4      165      4.3      130     87.0     87.6     86.4       25     1015     0.00      673     12.4
    08/28/2014 09:30      1.2      166      5.0      168     87.8     88.4     87.3       23     1015     0.00      712     12.4
    08/28/2014 09:45      1.3      108      4.5       78     88.9     89.8     87.6       22     1015     0.00      745     12.5
    08/28/2014 10:00      1.4      178      4.1      140     89.7     90.8     88.8       17     1015     0.00      780     12.5
    08/28/2014 10:15      1.5      190      4.6      123     90.9     91.9     90.0       17     1014     0.00      810     12.5
    08/28/2014 10:30      2.8      169      5.5      188     92.1     92.9     91.4       17     1014     0.00      837     12.5
    08/28/2014 10:30      2.8      169      5.5      188     92.1     92.9     91.4       17     1014     0.00      837     12.5
    08/28/2014 10:45      3.0      201      6.4      182     92.6     93.9     91.9       16     1014     0.00      859     12.9
    08/28/2014 11:00      3.9      178      8.8      170     93.6     95.0     92.7       17     1014     0.00      878     12.8
    08/28/2014 11:15      3.1      160      6.8      151     95.1     96.3     94.3       16     1014     0.00      894     13.0
    08/28/2014 11:30      1.9      194      6.0      180     96.4     97.3     95.8       16     1013     0.00      903     13.0
    08/28/2014 11:45      4.0      240      8.0      176     96.3     97.2     95.9       17     1013     0.00      907     12.6
    08/28/2014 12:00      3.4      288      8.3      287     97.0     97.5     96.6       15     1013     0.00      908     12.6
    08/28/2014 12:15      4.5      270     13.2      263     97.6     98.8     96.7       16     1013     0.00      909     12.5
    08/28/2014 12:30      6.3      277     12.7      279     97.4     98.1     96.6       16     1013     0.00      907     12.5
    08/28/2014 12:45      7.4      278     15.4      252     96.6     97.3     95.7       16     1012     0.00      898     12.5
    08/28/2014 13:00      7.5      274     16.7      280     96.0     96.9     95.4       16     1012     0.00      885     12.5
    08/28/2014 13:15      7.4      278     13.6      253     95.4     96.1     94.7       17     1012     0.00      868     12.5
    08/28/2014 13:30      7.3      270     14.1      250     94.9     95.5     94.6       16     1012     0.00      850     12.5
    08/28/2014 13:45      7.2      265     16.4      246     95.8     96.2     95.2       15     1012     0.00      826     12.5
    08/28/2014 14:00      7.9      269     16.9      263     95.2     96.0     94.5       16     1012     0.00      797     12.5
    08/28/2014 14:15      6.2      277     14.2      301     95.7     96.7     94.7       14     1012     0.00      765     12.5
    08/28/2014 14:30      7.1      272     17.3      251     95.3     96.0     94.4       14     1012     0.00      729     12.5
    08/28/2014 14:45      7.4      279     16.4      239     95.4     95.8     95.0       14     1012     0.00      689     12.5
    08/28/2014 15:00      7.4      268     14.6      253     94.7     95.2     94.1       13     1012     0.00      648     12.5
    08/28/2014 15:15      7.6      271     18.8      243     94.1     95.0     93.6       13     1012     0.00      605     12.5
    08/28/2014 15:30      7.7      262     18.6      242     93.6     94.4     92.4       12     1011     0.00      547     12.5
    08/28/2014 15:45      9.2      259     18.2      250     92.8     93.3     92.3       11     1011     0.00      510     12.5
    08/28/2014 16:00      7.9      256     16.8      243     92.6     93.2     92.3       11     1011     0.00      466     12.5
    08/28/2014 16:15      9.2      261     17.4      256     92.1     93.1     91.5       11     1011     0.00      416     12.5
    08/28/2014 16:30      7.7      257     16.8      256     91.9     92.1     91.5       10     1011     0.00      364     12.5
    08/28/2014 16:45      6.0      259     13.2      251     92.1     92.5     91.8       11     1011     0.00      311     12.5
    08/28/2014 17:00      4.4      251     11.4      263     92.3     92.7     91.9       12     1011     0.00      259     12.5
    08/28/2014 17:15      5.9      262     16.0      239     91.5     92.3     90.7       13     1011     0.00      207     12.5
    08/28/2014 17:30      4.1      261     10.2      257     90.6     91.0     90.0       14     1011     0.00      157     12.5
    08/28/2014 17:45      5.7      265     13.7      249     89.1     90.3     88.3       14     1011     0.00      112     12.5
    08/28/2014 18:00      6.2      262     12.9      259     87.9     88.4     87.2       14     1011     0.00       66     12.5
    08/28/2014 18:15      5.8      258     12.0      250     86.6     87.3     86.0       14     1011     0.00       25     12.5
    08/28/2014 18:30      5.3      252     10.3      259     85.1     86.2     84.2       15     1011     0.00        6     12.5
    08/28/2014 18:45      6.0      247     10.4      258     84.1     84.5     83.5       15     1011     0.00        1     12.5
    08/28/2014 19:00      3.1      230      8.4      232     83.5     84.2     83.0       15     1011     0.00        0     12.5
    08/28/2014 19:15      3.5      235     10.0      254     82.8     83.3     82.1       17     1011     0.00        0     12.5
    08/28/2014 19:30      2.4      265      7.7      245     82.0     82.4     81.4       16     1011     0.00        0     12.5
    08/28/2014 19:45      2.4      260      6.3      265     81.2     81.7     80.3       17     1011     0.00        0     12.5
    08/28/2014 20:00      1.9      262      5.3      259     80.3     80.7     80.0       21     1011     0.00        0     12.4
    08/28/2014 20:15      0.6      290      3.3      280     79.3     80.0     78.6       22     1011     0.00        0     12.4
    08/28/2014 20:30      1.1      278      3.9      244     78.6     78.9     78.0       22     1012     0.00        0     12.4
    08/28/2014 20:45      0.8      269      3.2      272     78.3     78.6     77.9       23     1011     0.00        0     12.4
    08/28/2014 21:00      0.0        0      0.0      316     77.4     78.0     76.8       24     1012     0.00        0     12.4
    08/28/2014 21:15      0.3      165      3.2      167     76.5     77.0     76.0       25     1012     0.00        0     12.4
    08/28/2014 21:30      0.3      173      2.2      169     75.9     76.4     75.5       24     1012     0.00        0     12.4
    08/28/2014 21:45      0.0        0      0.0      207     75.4     75.6     75.2       24     1012     0.00        0     12.4
    08/28/2014 22:00      0.0        0      0.0      193     75.1     75.4     74.7       26     1012     0.00        0     12.4
    08/28/2014 22:15      0.0        0      0.0      178     74.4     74.8     74.0       27     1012     0.00        0     12.4
    08/28/2014 22:30      0.0        0      0.0       53     74.4     74.6     74.1       28     1012     0.00        0     12.4
    08/28/2014 22:45      0.0        0      0.0       19     74.0     74.5     73.7       29     1012     0.00        0     12.4
    08/28/2014 23:00      0.1       40      1.5       50     73.4     73.7     72.9       30     1011     0.00        0     12.4
    08/28/2014 23:15      0.2       41      2.2       31     72.3     72.9     71.9       31     1011     0.00        0     12.4
    08/28/2014 23:30      0.4       33      2.5       59     72.6     72.9     72.0       32     1011     0.00        0     12.4
    08/28/2014 23:45      0.3       13      1.7       21     72.9     73.1     72.7       32     1012     0.00        0     12.4
    08/29/2014 00:00      0.5        4      2.0        8     72.8     73.2     72.4       33     1011     0.00        0     12.4
    08/29/2014 00:15      0.0        0      0.0       21     71.0     72.5     70.5       34     1011     0.00        0     12.4
    08/29/2014 00:30      0.1      330      1.2      328     71.1     71.5     70.6       34     1011     0.00        0     12.4
    08/29/2014 00:45      0.1      332      1.3      328     71.1     71.4     70.7       34     1011     0.00        0     12.4
    08/29/2014 01:00      0.0        0      0.0      314     70.1     71.1     69.2       36     1011     0.00        0     12.4
    08/29/2014 01:15      0.0        0      0.0      307     68.8     69.3     68.4       37     1011     0.00        0     12.3
    08/29/2014 01:30      0.0        0      0.0      180     68.5     68.7     68.3       38     1011     0.00        0     12.3
    08/29/2014 01:45      0.0      346      0.9      346     68.6     68.9     68.4       39     1011     0.00        0     12.3
    08/29/2014 02:00      0.1      340      1.2      343     68.7     69.1     68.4       39     1011     0.00        0     12.3
    08/29/2014 02:15      0.2      353      1.2       -1     69.0     69.2     68.6       38     1011     0.00        0     12.3
    08/29/2014 02:30      0.0       26      0.6       24     68.4     69.0     67.7       40     1011     0.00        0     12.3
    08/29/2014 02:45      0.0        0      0.0      130     67.3     67.8     66.9       42     1010     0.00        0     12.3
    08/29/2014 03:00      0.0        0      0.0      351     66.8     67.2     66.5       43     1010     0.00        0     12.3
    08/29/2014 03:15      0.0        0      0.0      314     66.5     66.7     65.9       44     1010     0.00        0     12.3
    08/29/2014 03:30      0.0        0      0.0      303     65.8     66.2     65.5       44     1010     0.00        0     12.3
    08/29/2014 03:45      0.0        0      0.0      292     65.2     65.6     65.0       44     1011     0.00        0     12.3
    08/29/2014 04:00      0.1      346      1.0      349     65.6     66.0     65.2       43     1010     0.00        0     12.3
    08/29/2014 04:15      0.0        0      0.0      355     65.5     65.9     65.3       44     1010     0.00        0     12.3
    08/29/2014 04:30      0.0       28      0.9       38     65.4     65.6     65.2       44     1011     0.00        0     12.3
    08/29/2014 04:45      0.4       22      1.9       29     66.1     66.5     65.5       42     1011     0.00        0     12.3
    08/29/2014 05:00      0.5       23      2.0       18     65.9     66.2     65.3       43     1011     0.00        0     12.3
    08/29/2014 05:15      0.3        8      1.4       26     65.0     65.6     64.2       49     1011     0.00        0     12.3
    08/29/2014 05:30      0.0        0      0.0        0     63.8     64.2     63.5       49     1011     0.00        2     12.3
    08/29/2014 05:45      0.5      337      2.0      345     64.2     65.2     63.6       45     1011     0.00        8     12.3
    08/29/2014 06:00      0.1      327      0.9      335     64.8     65.3     64.2       51     1011     0.00       15     12.3
    08/29/2014 06:15      0.0        0      0.0      320     64.1     64.4     63.9       52     1011     0.00       21     12.3
    08/29/2014 06:30      0.0        0      0.0      223     65.2     67.0     64.1       46     1011     0.00      123     12.3
    08/29/2014 06:45      0.0        0      0.0      239     69.6     71.8     67.0       40     1011     0.00      182     12.3
    08/29/2014 07:00      1.4      186      2.9      196     71.5     71.8     70.9       41     1011     0.00      234     12.3
    08/29/2014 07:15      1.4      200      2.5      223     71.6     72.1     70.9       39     1011     0.00      285     12.3
    08/29/2014 07:30      0.3      214      2.0      207     72.8     73.8     71.6       35     1011     0.00      337     12.3
    08/29/2014 07:45      0.2      180      1.3      191     75.3     77.1     73.7       33     1011     0.00      391     12.3
    08/29/2014 08:00      0.3      158      1.8      145     77.6     78.3     76.5       29     1011     0.00      443     12.3
    08/29/2014 08:15      0.7      184      3.3      199     78.5     79.3     77.8       30     1011     0.00      493     12.3
    08/29/2014 08:30      1.2      203      3.0      176     79.4     80.2     78.2       29     1011     0.00      543     12.3